sensor_id;sensor_type;location;lat;lon;timestamp;temperature;humidity
5834;DHT22;2943;48.012;10.968;2023-02-08T00:00:59;-4.20;99.90
5834;DHT22;2943;48.012;10.968;2023-02-08T00:03:25;-4.20;99.90
5834;DHT22;2943;48.012;10.968;2023-02-08T00:05:53;-4.20;99.90
5834;DHT22;2943;48.012;10.968;2023-02-08T00:08:20;-4.20;99.90
5834;DHT22;2943;48.012;10.968;2023-02-08T00:10:48;-4.30;99.90
5834;DHT22;2943;48.012;10.968;2023-02-08T00:13:15;-4.30;99.90
5834;DHT22;2943;48.012;10.968;2023-02-08T00:15:46;-4.30;99.90
5834;DHT22;2943;48.012;10.968;2023-02-08T00:18:13;-4.30;99.90
5834;DHT22;2943;48.012;10.968;2023-02-08T00:20:41;-4.30;99.90
5834;DHT22;2943;48.012;10.968;2023-02-08T00:23:08;-4.30;99.90
5834;DHT22;2943;48.012;10.968;2023-02-08T00:25:37;-4.40;99.90
5834;DHT22;2943;48.012;10.968;2023-02-08T00:28:04;-4.40;99.90
5834;DHT22;2943;48.012;10.968;2023-02-08T00:30:32;-4.40;99.90
5834;DHT22;2943;48.012;10.968;2023-02-08T00:33:01;-4.40;99.90
5834;DHT22;2943;48.012;10.968;2023-02-08T00:35:28;-4.50;99.90
5834;DHT22;2943;48.012;10.968;2023-02-08T00:37:55;-4.40;99.90
5834;DHT22;2943;48.012;10.968;2023-02-08T00:40:22;-4.40;99.90
5834;DHT22;2943;48.012;10.968;2023-02-08T00:42:49;-4.40;99.90
5834;DHT22;2943;48.012;10.968;2023-02-08T00:45:16;-4.50;99.90
5834;DHT22;2943;48.012;10.968;2023-02-08T00:47:43;-4.50;99.90
5834;DHT22;2943;48.012;10.968;2023-02-08T00:50:11;-4.50;99.90
5834;DHT22;2943;48.012;10.968;2023-02-08T00:52:39;-4.50;99.90
5834;DHT22;2943;48.012;10.968;2023-02-08T00:55:06;-4.60;99.90
5834;DHT22;2943;48.012;10.968;2023-02-08T00:57:34;-4.60;99.90
5834;DHT22;2943;48.012;10.968;2023-02-08T01:00:01;-4.60;99.90
5834;DHT22;2943;48.012;10.968;2023-02-08T01:02:29;-4.60;99.90
5834;DHT22;2943;48.012;10.968;2023-02-08T01:04:55;-4.70;99.90
5834;DHT22;2943;48.012;10.968;2023-02-08T01:07:24;-4.70;99.90
5834;DHT22;2943;48.012;10.968;2023-02-08T01:09:50;-4.70;99.90
5834;DHT22;2943;48.012;10.968;2023-02-08T01:12:17;-4.70;99.90
5834;DHT22;2943;48.012;10.968;2023-02-08T01:14:44;-4.70;99.90
5834;DHT22;2943;48.012;10.968;2023-02-08T01:17:11;-4.70;99.90
5834;DHT22;2943;48.012;10.968;2023-02-08T01:19:38;-4.70;99.90
5834;DHT22;2943;48.012;10.968;2023-02-08T01:22:05;-4.70;99.90
5834;DHT22;2943;48.012;10.968;2023-02-08T01:24:34;-4.70;99.90
5834;DHT22;2943;48.012;10.968;2023-02-08T01:27:00;-4.70;99.90
5834;DHT22;2943;48.012;10.968;2023-02-08T01:29:27;-4.70;99.90
5834;DHT22;2943;48.012;10.968;2023-02-08T01:31:54;-4.70;99.90
5834;DHT22;2943;48.012;10.968;2023-02-08T01:34:21;-4.80;99.90
5834;DHT22;2943;48.012;10.968;2023-02-08T01:36:48;-4.80;99.90
5834;DHT22;2943;48.012;10.968;2023-02-08T01:39:15;-4.80;99.90
5834;DHT22;2943;48.012;10.968;2023-02-08T01:41:44;-4.80;99.90
5834;DHT22;2943;48.012;10.968;2023-02-08T01:47:15;-4.80;99.90
5834;DHT22;2943;48.012;10.968;2023-02-08T01:49:42;-4.80;99.90
5834;DHT22;2943;48.012;10.968;2023-02-08T01:52:12;-4.80;99.90
5834;DHT22;2943;48.012;10.968;2023-02-08T01:54:43;-4.90;99.90
5834;DHT22;2943;48.012;10.968;2023-02-08T01:57:13;-4.90;99.90
5834;DHT22;2943;48.012;10.968;2023-02-08T01:59:46;-4.90;99.90
5834;DHT22;2943;48.012;10.968;2023-02-08T02:02:18;-4.90;99.90
5834;DHT22;2943;48.012;10.968;2023-02-08T02:04:46;-4.90;99.90
5834;DHT22;2943;48.012;10.968;2023-02-08T02:07:15;-4.90;99.90
5834;DHT22;2943;48.012;10.968;2023-02-08T02:09:45;-4.90;99.90
5834;DHT22;2943;48.012;10.968;2023-02-08T02:12:15;-4.90;99.90
5834;DHT22;2943;48.012;10.968;2023-02-08T02:14:44;-4.90;99.90
5834;DHT22;2943;48.012;10.968;2023-02-08T02:17:12;-4.90;99.90
5834;DHT22;2943;48.012;10.968;2023-02-08T02:19:48;-4.90;99.90
5834;DHT22;2943;48.012;10.968;2023-02-08T02:23:05;-5.00;99.90
5834;DHT22;2943;48.012;10.968;2023-02-08T02:31:57;-5.10;99.90
5834;DHT22;2943;48.012;10.968;2023-02-08T02:34:29;-5.10;99.90
5834;DHT22;2943;48.012;10.968;2023-02-08T02:37:02;-5.10;99.90
5834;DHT22;2943;48.012;10.968;2023-02-08T02:39:36;-5.20;99.90
5834;DHT22;2943;48.012;10.968;2023-02-08T02:42:10;-5.20;99.90
5834;DHT22;2943;48.012;10.968;2023-02-08T02:45:03;-5.20;99.90
5834;DHT22;2943;48.012;10.968;2023-02-08T02:47:37;-5.20;99.90
5834;DHT22;2943;48.012;10.968;2023-02-08T02:50:11;-5.20;99.90
5834;DHT22;2943;48.012;10.968;2023-02-08T02:52:44;-5.10;99.90
5834;DHT22;2943;48.012;10.968;2023-02-08T02:55:15;-5.10;99.90
5834;DHT22;2943;48.012;10.968;2023-02-08T02:57:46;-5.20;99.90
5834;DHT22;2943;48.012;10.968;2023-02-08T03:00:20;-5.20;99.90
5834;DHT22;2943;48.012;10.968;2023-02-08T03:02:49;-5.20;99.90
5834;DHT22;2943;48.012;10.968;2023-02-08T03:05:16;-5.20;99.90
5834;DHT22;2943;48.012;10.968;2023-02-08T03:08:21;-5.20;99.90
5834;DHT22;2943;48.012;10.968;2023-02-08T03:10:59;-5.20;99.90
5834;DHT22;2943;48.012;10.968;2023-02-08T03:13:40;-5.30;99.90
5834;DHT22;2943;48.012;10.968;2023-02-08T03:16:17;-5.30;99.90
5834;DHT22;2943;48.012;10.968;2023-02-08T03:18:58;-5.30;99.90
5834;DHT22;2943;48.012;10.968;2023-02-08T03:21:36;-5.40;99.90
5834;DHT22;2943;48.012;10.968;2023-02-08T03:24:13;-5.40;99.90
5834;DHT22;2943;48.012;10.968;2023-02-08T03:26:49;-5.40;99.90
5834;DHT22;2943;48.012;10.968;2023-02-08T03:29:25;-5.40;99.90
5834;DHT22;2943;48.012;10.968;2023-02-08T03:31:56;-5.50;99.90
5834;DHT22;2943;48.012;10.968;2023-02-08T03:34:30;-5.50;99.90
5834;DHT22;2943;48.012;10.968;2023-02-08T03:37:00;-5.50;99.90
5834;DHT22;2943;48.012;10.968;2023-02-08T03:39:29;-5.50;99.90
5834;DHT22;2943;48.012;10.968;2023-02-08T03:41:59;-5.60;99.90
5834;DHT22;2943;48.012;10.968;2023-02-08T03:44:31;-5.60;99.90
5834;DHT22;2943;48.012;10.968;2023-02-08T03:47:03;-5.60;99.90
5834;DHT22;2943;48.012;10.968;2023-02-08T03:49:35;-5.60;99.90
5834;DHT22;2943;48.012;10.968;2023-02-08T03:52:04;-5.60;99.90
5834;DHT22;2943;48.012;10.968;2023-02-08T03:54:35;-5.70;99.90
5834;DHT22;2943;48.012;10.968;2023-02-08T03:57:07;-5.70;99.90
5834;DHT22;2943;48.012;10.968;2023-02-08T03:59:38;-5.70;99.90
5834;DHT22;2943;48.012;10.968;2023-02-08T04:02:09;-5.80;99.90
5834;DHT22;2943;48.012;10.968;2023-02-08T04:04:43;-5.80;99.90
5834;DHT22;2943;48.012;10.968;2023-02-08T04:07:11;-5.80;99.90
5834;DHT22;2943;48.012;10.968;2023-02-08T04:09:38;-5.80;99.90
5834;DHT22;2943;48.012;10.968;2023-02-08T04:12:06;-5.80;99.90
5834;DHT22;2943;48.012;10.968;2023-02-08T04:14:33;-5.80;99.90
5834;DHT22;2943;48.012;10.968;2023-02-08T04:17:00;-5.80;99.90
5834;DHT22;2943;48.012;10.968;2023-02-08T04:19:26;-5.90;99.90
5834;DHT22;2943;48.012;10.968;2023-02-08T04:21:55;-5.90;99.90
5834;DHT22;2943;48.012;10.968;2023-02-08T04:24:22;-5.90;99.90
5834;DHT22;2943;48.012;10.968;2023-02-08T04:26:48;-5.80;99.90
5834;DHT22;2943;48.012;10.968;2023-02-08T04:29:15;-5.80;99.90
5834;DHT22;2943;48.012;10.968;2023-02-08T04:31:42;-5.80;99.90
5834;DHT22;2943;48.012;10.968;2023-02-08T04:34:09;-5.80;99.90
5834;DHT22;2943;48.012;10.968;2023-02-08T04:36:36;-5.80;99.90
5834;DHT22;2943;48.012;10.968;2023-02-08T04:39:04;-5.80;99.90
5834;DHT22;2943;48.012;10.968;2023-02-08T04:41:31;-5.80;99.90
5834;DHT22;2943;48.012;10.968;2023-02-08T04:43:58;-5.80;99.90
5834;DHT22;2943;48.012;10.968;2023-02-08T04:46:25;-5.90;99.90
5834;DHT22;2943;48.012;10.968;2023-02-08T04:48:52;-5.90;99.90
5834;DHT22;2943;48.012;10.968;2023-02-08T04:51:19;-5.90;99.90
5834;DHT22;2943;48.012;10.968;2023-02-08T04:53:45;-5.90;99.90
5834;DHT22;2943;48.012;10.968;2023-02-08T04:56:14;-5.90;99.90
5834;DHT22;2943;48.012;10.968;2023-02-08T04:58:41;-5.90;99.90
5834;DHT22;2943;48.012;10.968;2023-02-08T05:01:08;-5.90;99.90
5834;DHT22;2943;48.012;10.968;2023-02-08T05:03:36;-5.90;99.90
5834;DHT22;2943;48.012;10.968;2023-02-08T05:06:02;-6.00;99.90
5834;DHT22;2943;48.012;10.968;2023-02-08T05:08:29;-6.00;99.90
5834;DHT22;2943;48.012;10.968;2023-02-08T05:10:56;-6.00;99.90
5834;DHT22;2943;48.012;10.968;2023-02-08T05:13:24;-6.00;99.90
5834;DHT22;2943;48.012;10.968;2023-02-08T05:15:51;-6.10;99.90
5834;DHT22;2943;48.012;10.968;2023-02-08T05:18:18;-6.10;99.90
5834;DHT22;2943;48.012;10.968;2023-02-08T05:20:45;-6.20;99.90
5834;DHT22;2943;48.012;10.968;2023-02-08T05:23:19;-6.20;99.90
5834;DHT22;2943;48.012;10.968;2023-02-08T05:25:46;-6.20;99.90
5834;DHT22;2943;48.012;10.968;2023-02-08T05:28:13;-6.20;99.90
5834;DHT22;2943;48.012;10.968;2023-02-08T05:30:41;-6.20;99.90
5834;DHT22;2943;48.012;10.968;2023-02-08T05:33:08;-6.10;99.90
5834;DHT22;2943;48.012;10.968;2023-02-08T05:35:35;-6.20;99.90
5834;DHT22;2943;48.012;10.968;2023-02-08T05:38:02;-6.20;99.90
5834;DHT22;2943;48.012;10.968;2023-02-08T05:40:29;-6.20;99.90
5834;DHT22;2943;48.012;10.968;2023-02-08T05:42:55;-6.20;99.90
5834;DHT22;2943;48.012;10.968;2023-02-08T05:45:22;-6.20;99.90
5834;DHT22;2943;48.012;10.968;2023-02-08T05:47:50;-6.20;99.90
5834;DHT22;2943;48.012;10.968;2023-02-08T05:50:18;-6.20;99.90
5834;DHT22;2943;48.012;10.968;2023-02-08T05:52:44;-6.30;99.90
5834;DHT22;2943;48.012;10.968;2023-02-08T05:55:11;-6.30;99.90
5834;DHT22;2943;48.012;10.968;2023-02-08T05:57:38;-6.00;99.90
5834;DHT22;2943;48.012;10.968;2023-02-08T06:00:06;-5.50;99.90
5834;DHT22;2943;48.012;10.968;2023-02-08T06:02:33;-5.00;99.90
5834;DHT22;2943;48.012;10.968;2023-02-08T06:05:01;-4.80;99.90
5834;DHT22;2943;48.012;10.968;2023-02-08T06:07:28;-4.90;99.90
5834;DHT22;2943;48.012;10.968;2023-02-08T06:09:55;-5.00;99.90
5834;DHT22;2943;48.012;10.968;2023-02-08T06:12:22;-5.20;99.90
5834;DHT22;2943;48.012;10.968;2023-02-08T06:14:49;-5.50;99.90
5834;DHT22;2943;48.012;10.968;2023-02-08T06:17:16;-5.60;99.90
5834;DHT22;2943;48.012;10.968;2023-02-08T06:19:43;-5.70;99.90
5834;DHT22;2943;48.012;10.968;2023-02-08T06:22:11;-5.90;99.90
5834;DHT22;2943;48.012;10.968;2023-02-08T06:24:38;-6.00;99.90
5834;DHT22;2943;48.012;10.968;2023-02-08T06:27:04;-6.10;99.90
5834;DHT22;2943;48.012;10.968;2023-02-08T06:29:31;-6.10;99.90
5834;DHT22;2943;48.012;10.968;2023-02-08T06:31:58;-6.10;99.90
5834;DHT22;2943;48.012;10.968;2023-02-08T06:34:25;-6.20;99.90
5834;DHT22;2943;48.012;10.968;2023-02-08T06:36:52;-6.20;99.90
5834;DHT22;2943;48.012;10.968;2023-02-08T06:39:20;-6.30;99.90
5834;DHT22;2943;48.012;10.968;2023-02-08T06:41:47;-6.30;99.90
5834;DHT22;2943;48.012;10.968;2023-02-08T06:44:14;-6.30;99.90
5834;DHT22;2943;48.012;10.968;2023-02-08T06:46:41;-6.30;99.90
5834;DHT22;2943;48.012;10.968;2023-02-08T06:49:07;-6.30;99.90
5834;DHT22;2943;48.012;10.968;2023-02-08T06:51:34;-6.40;99.90
5834;DHT22;2943;48.012;10.968;2023-02-08T06:54:01;-6.40;99.90
5834;DHT22;2943;48.012;10.968;2023-02-08T06:56:29;-6.40;99.90
5834;DHT22;2943;48.012;10.968;2023-02-08T06:58:56;-6.40;99.90
5834;DHT22;2943;48.012;10.968;2023-02-08T07:01:23;-6.40;99.90
5834;DHT22;2943;48.012;10.968;2023-02-08T07:03:50;-6.30;99.90
5834;DHT22;2943;48.012;10.968;2023-02-08T07:06:18;-6.30;99.90
5834;DHT22;2943;48.012;10.968;2023-02-08T07:08:46;-6.30;99.90
5834;DHT22;2943;48.012;10.968;2023-02-08T07:11:14;-6.20;99.90
5834;DHT22;2943;48.012;10.968;2023-02-08T07:13:45;-6.30;99.90
5834;DHT22;2943;48.012;10.968;2023-02-08T07:16:13;-6.20;99.90
5834;DHT22;2943;48.012;10.968;2023-02-08T07:18:40;-6.30;99.90
5834;DHT22;2943;48.012;10.968;2023-02-08T07:21:07;-6.30;99.90
5834;DHT22;2943;48.012;10.968;2023-02-08T07:23:36;-6.20;99.90
5834;DHT22;2943;48.012;10.968;2023-02-08T07:26:04;-6.20;99.90
5834;DHT22;2943;48.012;10.968;2023-02-08T07:28:32;-6.20;99.90
5834;DHT22;2943;48.012;10.968;2023-02-08T07:31:04;-6.10;99.90
5834;DHT22;2943;48.012;10.968;2023-02-08T07:33:31;-6.10;99.90
5834;DHT22;2943;48.012;10.968;2023-02-08T07:35:57;-6.10;99.90
5834;DHT22;2943;48.012;10.968;2023-02-08T07:38:24;-6.10;99.90
5834;DHT22;2943;48.012;10.968;2023-02-08T07:40:51;-6.10;99.90
5834;DHT22;2943;48.012;10.968;2023-02-08T07:43:18;-6.00;99.90
5834;DHT22;2943;48.012;10.968;2023-02-08T07:45:45;-6.00;99.90
5834;DHT22;2943;48.012;10.968;2023-02-08T07:48:13;-6.00;99.90
5834;DHT22;2943;48.012;10.968;2023-02-08T07:50:40;-6.00;99.90
5834;DHT22;2943;48.012;10.968;2023-02-08T07:53:07;-6.00;99.90
5834;DHT22;2943;48.012;10.968;2023-02-08T07:55:34;-5.90;99.90
5834;DHT22;2943;48.012;10.968;2023-02-08T07:58:00;-5.90;99.90
5834;DHT22;2943;48.012;10.968;2023-02-08T08:00:27;-5.80;99.90
5834;DHT22;2943;48.012;10.968;2023-02-08T08:02:54;-5.80;99.90
5834;DHT22;2943;48.012;10.968;2023-02-08T08:05:22;-5.80;99.90
5834;DHT22;2943;48.012;10.968;2023-02-08T08:07:49;-5.70;99.90
5834;DHT22;2943;48.012;10.968;2023-02-08T08:10:16;-5.70;99.90
5834;DHT22;2943;48.012;10.968;2023-02-08T08:12:43;-5.60;99.90
5834;DHT22;2943;48.012;10.968;2023-02-08T08:15:09;-5.60;99.90
5834;DHT22;2943;48.012;10.968;2023-02-08T08:17:37;-5.60;99.90
5834;DHT22;2943;48.012;10.968;2023-02-08T08:20:07;-5.50;99.90
5834;DHT22;2943;48.012;10.968;2023-02-08T08:22:35;-5.40;99.90
5834;DHT22;2943;48.012;10.968;2023-02-08T08:25:03;-5.40;99.90
5834;DHT22;2943;48.012;10.968;2023-02-08T08:27:30;-5.40;99.90
5834;DHT22;2943;48.012;10.968;2023-02-08T08:29:57;-5.50;99.90
5834;DHT22;2943;48.012;10.968;2023-02-08T08:32:24;-5.40;99.90
5834;DHT22;2943;48.012;10.968;2023-02-08T08:34:51;-5.40;99.90
5834;DHT22;2943;48.012;10.968;2023-02-08T08:37:18;-5.40;99.90
5834;DHT22;2943;48.012;10.968;2023-02-08T08:39:46;-5.40;99.90
5834;DHT22;2943;48.012;10.968;2023-02-08T08:42:13;-5.40;99.90
5834;DHT22;2943;48.012;10.968;2023-02-08T08:44:40;-5.30;99.90
5834;DHT22;2943;48.012;10.968;2023-02-08T08:47:08;-5.30;99.90
5834;DHT22;2943;48.012;10.968;2023-02-08T08:49:35;-5.30;99.90
5834;DHT22;2943;48.012;10.968;2023-02-08T08:52:01;-5.20;99.90
5834;DHT22;2943;48.012;10.968;2023-02-08T08:54:30;-5.20;99.90
5834;DHT22;2943;48.012;10.968;2023-02-08T08:56:59;-5.10;99.90
5834;DHT22;2943;48.012;10.968;2023-02-08T08:59:26;-5.00;99.90
5834;DHT22;2943;48.012;10.968;2023-02-08T09:01:53;-4.90;99.90
5834;DHT22;2943;48.012;10.968;2023-02-08T09:04:20;-4.90;99.90
5834;DHT22;2943;48.012;10.968;2023-02-08T09:06:47;-4.90;99.90
5834;DHT22;2943;48.012;10.968;2023-02-08T09:09:14;-4.80;99.90
5834;DHT22;2943;48.012;10.968;2023-02-08T09:11:41;-4.80;99.90
5834;DHT22;2943;48.012;10.968;2023-02-08T09:14:09;-4.70;99.90
5834;DHT22;2943;48.012;10.968;2023-02-08T09:16:38;-4.60;99.90
5834;DHT22;2943;48.012;10.968;2023-02-08T09:19:07;-4.60;99.90
5834;DHT22;2943;48.012;10.968;2023-02-08T09:21:35;-4.60;99.90
5834;DHT22;2943;48.012;10.968;2023-02-08T09:24:02;-4.50;99.90
5834;DHT22;2943;48.012;10.968;2023-02-08T09:26:29;-4.50;99.90
5834;DHT22;2943;48.012;10.968;2023-02-08T09:28:56;-4.40;99.90
5834;DHT22;2943;48.012;10.968;2023-02-08T09:31:26;-4.30;99.90
5834;DHT22;2943;48.012;10.968;2023-02-08T09:33:57;-4.30;99.90
5834;DHT22;2943;48.012;10.968;2023-02-08T09:36:25;-4.20;99.90
5834;DHT22;2943;48.012;10.968;2023-02-08T09:38:54;-4.20;99.90
5834;DHT22;2943;48.012;10.968;2023-02-08T09:41:32;-4.10;99.90
5834;DHT22;2943;48.012;10.968;2023-02-08T09:44:14;-4.10;99.90
5834;DHT22;2943;48.012;10.968;2023-02-08T09:46:51;-4.00;99.90
5834;DHT22;2943;48.012;10.968;2023-02-08T09:49:26;-4.00;99.90
5834;DHT22;2943;48.012;10.968;2023-02-08T09:51:57;-3.90;99.90
5834;DHT22;2943;48.012;10.968;2023-02-08T09:54:31;-3.90;99.90
5834;DHT22;2943;48.012;10.968;2023-02-08T09:56:59;-3.80;99.90
5834;DHT22;2943;48.012;10.968;2023-02-08T09:59:28;-3.70;99.90
5834;DHT22;2943;48.012;10.968;2023-02-08T10:02:01;-3.70;99.90
5834;DHT22;2943;48.012;10.968;2023-02-08T10:04:37;-3.60;99.90
5834;DHT22;2943;48.012;10.968;2023-02-08T10:07:08;-3.60;99.90
5834;DHT22;2943;48.012;10.968;2023-02-08T10:09:35;-3.50;99.90
5834;DHT22;2943;48.012;10.968;2023-02-08T10:12:09;-3.50;99.90
5834;DHT22;2943;48.012;10.968;2023-02-08T10:14:45;-3.40;99.90
5834;DHT22;2943;48.012;10.968;2023-02-08T10:17:31;-3.30;99.90
5834;DHT22;2943;48.012;10.968;2023-02-08T10:20:05;-3.30;99.90
5834;DHT22;2943;48.012;10.968;2023-02-08T10:22:45;-3.20;99.90
5834;DHT22;2943;48.012;10.968;2023-02-08T10:25:26;-3.20;99.90
5834;DHT22;2943;48.012;10.968;2023-02-08T10:28:20;-3.10;99.90
5834;DHT22;2943;48.012;10.968;2023-02-08T10:30:56;-3.00;99.90
5834;DHT22;2943;48.012;10.968;2023-02-08T10:33:31;-3.00;99.90
5834;DHT22;2943;48.012;10.968;2023-02-08T10:36:12;-2.90;99.90
5834;DHT22;2943;48.012;10.968;2023-02-08T10:38:40;-2.90;99.90
5834;DHT22;2943;48.012;10.968;2023-02-08T10:41:09;-2.80;99.90
5834;DHT22;2943;48.012;10.968;2023-02-08T10:43:42;-2.70;99.90
5834;DHT22;2943;48.012;10.968;2023-02-08T10:46:18;-2.60;99.90
5834;DHT22;2943;48.012;10.968;2023-02-08T10:48:54;-2.60;99.90
5834;DHT22;2943;48.012;10.968;2023-02-08T10:51:24;-2.50;99.90
5834;DHT22;2943;48.012;10.968;2023-02-08T10:53:52;-2.40;99.90
5834;DHT22;2943;48.012;10.968;2023-02-08T10:56:36;-2.40;99.90
5834;DHT22;2943;48.012;10.968;2023-02-08T10:59:11;-2.30;99.90
5834;DHT22;2943;48.012;10.968;2023-02-08T11:01:39;-2.20;99.90
5834;DHT22;2943;48.012;10.968;2023-02-08T11:04:09;-2.20;99.90
5834;DHT22;2943;48.012;10.968;2023-02-08T11:06:37;-2.10;99.90
5834;DHT22;2943;48.012;10.968;2023-02-08T11:09:04;-2.10;99.90
5834;DHT22;2943;48.012;10.968;2023-02-08T11:11:34;-2.10;99.90
5834;DHT22;2943;48.012;10.968;2023-02-08T11:14:08;-2.00;99.90
5834;DHT22;2943;48.012;10.968;2023-02-08T11:16:36;-2.00;99.90
5834;DHT22;2943;48.012;10.968;2023-02-08T11:19:04;-1.90;99.90
5834;DHT22;2943;48.012;10.968;2023-02-08T11:21:35;-1.90;99.90
5834;DHT22;2943;48.012;10.968;2023-02-08T11:24:15;-1.80;99.90
5834;DHT22;2943;48.012;10.968;2023-02-08T11:26:44;-1.80;99.90
5834;DHT22;2943;48.012;10.968;2023-02-08T11:29:15;-1.70;99.90
5834;DHT22;2943;48.012;10.968;2023-02-08T11:31:56;-1.70;99.90
5834;DHT22;2943;48.012;10.968;2023-02-08T11:34:24;-1.70;99.90
5834;DHT22;2943;48.012;10.968;2023-02-08T11:36:52;-1.70;99.90
5834;DHT22;2943;48.012;10.968;2023-02-08T11:39:23;-1.60;99.90
5834;DHT22;2943;48.012;10.968;2023-02-08T11:41:53;-1.60;99.90
5834;DHT22;2943;48.012;10.968;2023-02-08T11:44:23;-1.60;99.90
5834;DHT22;2943;48.012;10.968;2023-02-08T11:46:52;-1.50;99.90
5834;DHT22;2943;48.012;10.968;2023-02-08T11:49:21;-1.40;99.90
5834;DHT22;2943;48.012;10.968;2023-02-08T11:51:48;-1.40;99.90
5834;DHT22;2943;48.012;10.968;2023-02-08T11:54:34;-1.40;99.90
5834;DHT22;2943;48.012;10.968;2023-02-08T11:57:12;-1.30;99.90
5834;DHT22;2943;48.012;10.968;2023-02-08T11:59:39;-1.30;99.90
5834;DHT22;2943;48.012;10.968;2023-02-08T12:02:29;-1.30;99.90
5834;DHT22;2943;48.012;10.968;2023-02-08T12:04:56;-1.30;99.90
5834;DHT22;2943;48.012;10.968;2023-02-08T12:07:33;-1.20;99.90
5834;DHT22;2943;48.012;10.968;2023-02-08T12:13:05;-1.20;99.90
5834;DHT22;2943;48.012;10.968;2023-02-08T12:15:44;-1.10;99.90
5834;DHT22;2943;48.012;10.968;2023-02-08T12:18:31;-1.10;99.90
5834;DHT22;2943;48.012;10.968;2023-02-08T12:21:05;-1.00;99.90
5834;DHT22;2943;48.012;10.968;2023-02-08T12:23:47;-1.00;99.90
5834;DHT22;2943;48.012;10.968;2023-02-08T12:26:37;-1.00;99.90
5834;DHT22;2943;48.012;10.968;2023-02-08T12:29:31;-1.00;99.90
5834;DHT22;2943;48.012;10.968;2023-02-08T12:32:13;-1.00;99.90
5834;DHT22;2943;48.012;10.968;2023-02-08T12:34:51;-1.00;99.90
5834;DHT22;2943;48.012;10.968;2023-02-08T12:37:29;-0.90;99.90
5834;DHT22;2943;48.012;10.968;2023-02-08T12:40:25;-1.00;99.90
5834;DHT22;2943;48.012;10.968;2023-02-08T12:43:19;-0.90;99.90
5834;DHT22;2943;48.012;10.968;2023-02-08T12:46:25;-0.90;99.90
5834;DHT22;2943;48.012;10.968;2023-02-08T12:49:21;-0.90;99.90
5834;DHT22;2943;48.012;10.968;2023-02-08T12:51:57;-0.80;99.90
5834;DHT22;2943;48.012;10.968;2023-02-08T12:54:32;-0.80;99.90
5834;DHT22;2943;48.012;10.968;2023-02-08T12:57:01;-0.80;99.90
5834;DHT22;2943;48.012;10.968;2023-02-08T12:59:34;-0.80;99.90
5834;DHT22;2943;48.012;10.968;2023-02-08T13:02:10;-0.70;99.90
5834;DHT22;2943;48.012;10.968;2023-02-08T13:04:41;-0.80;99.90
5834;DHT22;2943;48.012;10.968;2023-02-08T13:07:13;-0.70;99.90
5834;DHT22;2943;48.012;10.968;2023-02-08T13:09:45;-0.70;99.90
5834;DHT22;2943;48.012;10.968;2023-02-08T13:12:16;-0.70;99.90
5834;DHT22;2943;48.012;10.968;2023-02-08T13:14:49;-0.60;99.90
5834;DHT22;2943;48.012;10.968;2023-02-08T13:17:20;-0.60;99.90
5834;DHT22;2943;48.012;10.968;2023-02-08T13:19:55;-0.70;99.90
5834;DHT22;2943;48.012;10.968;2023-02-08T13:22:23;-0.60;99.90
5834;DHT22;2943;48.012;10.968;2023-02-08T13:24:51;-0.60;99.90
5834;DHT22;2943;48.012;10.968;2023-02-08T13:27:21;-0.60;99.90
5834;DHT22;2943;48.012;10.968;2023-02-08T13:29:51;-0.60;99.90
5834;DHT22;2943;48.012;10.968;2023-02-08T13:32:22;-0.60;99.90
5834;DHT22;2943;48.012;10.968;2023-02-08T13:34:57;-0.60;99.90
5834;DHT22;2943;48.012;10.968;2023-02-08T13:37:28;-0.50;99.90
5834;DHT22;2943;48.012;10.968;2023-02-08T13:40:02;-0.50;99.90
5834;DHT22;2943;48.012;10.968;2023-02-08T13:42:34;-0.50;99.90
5834;DHT22;2943;48.012;10.968;2023-02-08T13:45:05;-0.50;99.90
5834;DHT22;2943;48.012;10.968;2023-02-08T13:47:40;-0.50;99.90
5834;DHT22;2943;48.012;10.968;2023-02-08T13:50:40;-0.40;99.90
5834;DHT22;2943;48.012;10.968;2023-02-08T13:53:07;-0.40;99.90
5834;DHT22;2943;48.012;10.968;2023-02-08T13:55:52;-0.40;99.90
5834;DHT22;2943;48.012;10.968;2023-02-08T14:01:30;-0.40;99.90
5834;DHT22;2943;48.012;10.968;2023-02-08T14:04:29;-0.40;99.90
5834;DHT22;2943;48.012;10.968;2023-02-08T14:07:02;-0.40;99.90
5834;DHT22;2943;48.012;10.968;2023-02-08T14:09:42;-0.40;99.90
5834;DHT22;2943;48.012;10.968;2023-02-08T14:12:15;-0.40;99.90
5834;DHT22;2943;48.012;10.968;2023-02-08T14:15:14;-0.40;99.90
5834;DHT22;2943;48.012;10.968;2023-02-08T14:17:52;-0.50;99.90
5834;DHT22;2943;48.012;10.968;2023-02-08T14:20:24;-0.60;99.90
5834;DHT22;2943;48.012;10.968;2023-02-08T14:22:54;-0.60;99.90
5834;DHT22;2943;48.012;10.968;2023-02-08T14:25:23;-0.60;99.90
5834;DHT22;2943;48.012;10.968;2023-02-08T14:27:54;-0.60;99.90
5834;DHT22;2943;48.012;10.968;2023-02-08T14:30:25;-0.60;99.90
5834;DHT22;2943;48.012;10.968;2023-02-08T14:33:10;-0.60;99.90
5834;DHT22;2943;48.012;10.968;2023-02-08T14:35:48;-0.70;99.90
5834;DHT22;2943;48.012;10.968;2023-02-08T14:41:48;-0.70;99.90
5834;DHT22;2943;48.012;10.968;2023-02-08T14:47:50;-0.80;99.90
5834;DHT22;2943;48.012;10.968;2023-02-08T14:50:21;-0.90;99.90
5834;DHT22;2943;48.012;10.968;2023-02-08T14:52:55;-1.00;99.90
5834;DHT22;2943;48.012;10.968;2023-02-08T14:55:26;-1.00;99.90
5834;DHT22;2943;48.012;10.968;2023-02-08T14:57:53;-1.10;99.90
5834;DHT22;2943;48.012;10.968;2023-02-08T15:00:23;-1.10;99.90
5834;DHT22;2943;48.012;10.968;2023-02-08T15:02:52;-1.10;99.90
5834;DHT22;2943;48.012;10.968;2023-02-08T15:05:23;-1.10;99.90
5834;DHT22;2943;48.012;10.968;2023-02-08T15:07:51;-1.00;99.90
5834;DHT22;2943;48.012;10.968;2023-02-08T15:10:20;-0.90;99.90
5834;DHT22;2943;48.012;10.968;2023-02-08T15:12:49;-0.90;99.90
5834;DHT22;2943;48.012;10.968;2023-02-08T15:15:24;-0.90;99.90
5834;DHT22;2943;48.012;10.968;2023-02-08T15:17:52;-0.90;99.90
5834;DHT22;2943;48.012;10.968;2023-02-08T15:20:23;-0.90;99.90
5834;DHT22;2943;48.012;10.968;2023-02-08T15:22:58;-1.00;99.90
5834;DHT22;2943;48.012;10.968;2023-02-08T15:25:28;-1.00;99.90
5834;DHT22;2943;48.012;10.968;2023-02-08T15:27:58;-1.00;99.90
5834;DHT22;2943;48.012;10.968;2023-02-08T15:30:31;-1.00;99.90
5834;DHT22;2943;48.012;10.968;2023-02-08T15:33:00;-1.00;99.90
5834;DHT22;2943;48.012;10.968;2023-02-08T15:35:32;-0.90;99.90
5834;DHT22;2943;48.012;10.968;2023-02-08T15:38:00;-1.00;99.90
5834;DHT22;2943;48.012;10.968;2023-02-08T15:40:31;-1.10;99.90
5834;DHT22;2943;48.012;10.968;2023-02-08T15:43:03;-1.10;99.90
5834;DHT22;2943;48.012;10.968;2023-02-08T15:45:30;-1.10;99.90
5834;DHT22;2943;48.012;10.968;2023-02-08T15:47:57;-1.10;99.90
5834;DHT22;2943;48.012;10.968;2023-02-08T15:50:26;-1.10;99.90
5834;DHT22;2943;48.012;10.968;2023-02-08T15:52:58;-1.20;99.90
5834;DHT22;2943;48.012;10.968;2023-02-08T15:55:29;-1.20;99.90
5834;DHT22;2943;48.012;10.968;2023-02-08T15:57:59;-1.20;99.90
5834;DHT22;2943;48.012;10.968;2023-02-08T16:00:30;-1.30;99.90
5834;DHT22;2943;48.012;10.968;2023-02-08T16:03:00;-1.30;99.90
5834;DHT22;2943;48.012;10.968;2023-02-08T16:05:31;-1.40;99.90
5834;DHT22;2943;48.012;10.968;2023-02-08T16:08:02;-1.40;99.90
5834;DHT22;2943;48.012;10.968;2023-02-08T16:10:32;-1.40;99.90
5834;DHT22;2943;48.012;10.968;2023-02-08T16:13:03;-1.40;99.90
5834;DHT22;2943;48.012;10.968;2023-02-08T16:15:40;-1.40;99.90
5834;DHT22;2943;48.012;10.968;2023-02-08T16:18:29;-1.50;99.90
5834;DHT22;2943;48.012;10.968;2023-02-08T16:20:57;-1.50;99.90
5834;DHT22;2943;48.012;10.968;2023-02-08T16:23:28;-1.40;99.90
5834;DHT22;2943;48.012;10.968;2023-02-08T16:26:07;-1.40;99.90
5834;DHT22;2943;48.012;10.968;2023-02-08T16:28:35;-1.40;99.90
5834;DHT22;2943;48.012;10.968;2023-02-08T16:31:03;-1.50;99.90